Hockingport, Ohio
Current Conditions -  °F | °C
As of 8:53 PM on Saturday 22 Nov 2014 (Local Time) from KPKB Reporting Station
Overcast Overcast  
Wind Chill: 50°   Ceiling: 8000
Heat Index: 50°   Visibility: 10mi
Dew Point: 30°   Wind: 6mph
Humidity: 46%   Direction: 180°S
Pressure: 30.16"   Gusts: NA
Location:  39.19°N, 81.75°W
Report Text: KPKB 230153Z 18005KT 10SM BKN080 OVC100 10/M01 A3016 RMK AO2 SLP218 T01001011
Loading
Personal Weather Stations






























Interactive Weather Map New forecast layout! Learn more

10-Day Weather Forecast

Advertisements
Track Severe Weather on mobile